sensor_id;sensor_type;location;lat;lon;timestamp;P1;durP1;ratioP1;P2;durP2;ratioP2
22476;SDS011;65006;51.698;-0.292;2023-03-21T00:01:06;8.30;;;3.58;;
22476;SDS011;65006;51.698;-0.292;2023-03-21T00:03:32;9.15;;;4.18;;
22476;SDS011;65006;51.698;-0.292;2023-03-21T00:06:03;15.70;;;4.15;;
22476;SDS011;65006;51.698;-0.292;2023-03-21T00:08:30;7.75;;;3.97;;
22476;SDS011;65006;51.698;-0.292;2023-03-21T00:10:56;8.00;;;4.32;;
22476;SDS011;65006;51.698;-0.292;2023-03-21T00:13:23;8.60;;;4.07;;
22476;SDS011;65006;51.698;-0.292;2023-03-21T00:15:50;15.75;;;4.82;;
22476;SDS011;65006;51.698;-0.292;2023-03-21T00:18:21;11.70;;;3.83;;
22476;SDS011;65006;51.698;-0.292;2023-03-21T00:20:55;14.60;;;4.80;;
22476;SDS011;65006;51.698;-0.292;2023-03-21T00:23:22;8.80;;;4.65;;
22476;SDS011;65006;51.698;-0.292;2023-03-21T00:25:48;13.82;;;4.57;;
22476;SDS011;65006;51.698;-0.292;2023-03-21T00:28:14;11.35;;;4.82;;
22476;SDS011;65006;51.698;-0.292;2023-03-21T00:30:40;14.98;;;5.15;;
22476;SDS011;65006;51.698;-0.292;2023-03-21T00:33:06;11.45;;;5.13;;
22476;SDS011;65006;51.698;-0.292;2023-03-21T00:35:33;15.93;;;5.65;;
22476;SDS011;65006;51.698;-0.292;2023-03-21T00:37:59;15.43;;;4.97;;
22476;SDS011;65006;51.698;-0.292;2023-03-21T00:40:26;10.35;;;5.13;;
22476;SDS011;65006;51.698;-0.292;2023-03-21T00:45:41;19.10;;;5.20;;
22476;SDS011;65006;51.698;-0.292;2023-03-21T00:48:08;15.70;;;4.85;;
22476;SDS011;65006;51.698;-0.292;2023-03-21T00:50:34;12.02;;;5.22;;
22476;SDS011;65006;51.698;-0.292;2023-03-21T00:53:00;12.45;;;4.97;;
22476;SDS011;65006;51.698;-0.292;2023-03-21T00:55:26;9.90;;;4.78;;
22476;SDS011;65006;51.698;-0.292;2023-03-21T01:00:19;12.93;;;5.03;;
22476;SDS011;65006;51.698;-0.292;2023-03-21T01:02:45;14.48;;;4.43;;
22476;SDS011;65006;51.698;-0.292;2023-03-21T01:05:27;10.43;;;4.65;;
22476;SDS011;65006;51.698;-0.292;2023-03-21T01:08:13;15.70;;;5.38;;
22476;SDS011;65006;51.698;-0.292;2023-03-21T01:10:41;9.93;;;4.70;;
22476;SDS011;65006;51.698;-0.292;2023-03-21T01:13:07;21.65;;;5.25;;
22476;SDS011;65006;51.698;-0.292;2023-03-21T01:15:34;14.95;;;5.05;;
22476;SDS011;65006;51.698;-0.292;2023-03-21T01:20:26;16.65;;;4.60;;
22476;SDS011;65006;51.698;-0.292;2023-03-21T01:22:52;13.27;;;5.20;;
22476;SDS011;65006;51.698;-0.292;2023-03-21T01:25:19;16.50;;;4.68;;
22476;SDS011;65006;51.698;-0.292;2023-03-21T01:27:45;10.55;;;4.75;;
22476;SDS011;65006;51.698;-0.292;2023-03-21T01:30:11;12.27;;;4.90;;
22476;SDS011;65006;51.698;-0.292;2023-03-21T01:32:37;19.88;;;4.95;;
22476;SDS011;65006;51.698;-0.292;2023-03-21T01:35:03;15.18;;;4.75;;
22476;SDS011;65006;51.698;-0.292;2023-03-21T01:37:29;17.85;;;4.90;;
22476;SDS011;65006;51.698;-0.292;2023-03-21T01:39:56;23.42;;;5.32;;
22476;SDS011;65006;51.698;-0.292;2023-03-21T01:42:22;10.77;;;5.07;;
22476;SDS011;65006;51.698;-0.292;2023-03-21T01:44:52;15.27;;;5.50;;
22476;SDS011;65006;51.698;-0.292;2023-03-21T01:47:19;11.88;;;4.78;;
22476;SDS011;65006;51.698;-0.292;2023-03-21T01:49:46;11.93;;;4.75;;
22476;SDS011;65006;51.698;-0.292;2023-03-21T01:52:15;13.95;;;5.53;;
22476;SDS011;65006;51.698;-0.292;2023-03-21T01:54:41;11.98;;;5.05;;
22476;SDS011;65006;51.698;-0.292;2023-03-21T01:57:08;13.30;;;6.03;;
22476;SDS011;65006;51.698;-0.292;2023-03-21T01:59:36;20.38;;;5.28;;
22476;SDS011;65006;51.698;-0.292;2023-03-21T02:02:03;12.27;;;5.20;;
22476;SDS011;65006;51.698;-0.292;2023-03-21T02:04:32;17.00;;;4.80;;
22476;SDS011;65006;51.698;-0.292;2023-03-21T02:06:59;19.13;;;5.28;;
22476;SDS011;65006;51.698;-0.292;2023-03-21T02:09:29;13.32;;;5.35;;
22476;SDS011;65006;51.698;-0.292;2023-03-21T02:11:57;15.30;;;5.60;;
22476;SDS011;65006;51.698;-0.292;2023-03-21T02:14:23;14.48;;;5.72;;
22476;SDS011;65006;51.698;-0.292;2023-03-21T02:19:46;17.25;;;4.97;;
22476;SDS011;65006;51.698;-0.292;2023-03-21T02:27:24;23.48;;;5.43;;
22476;SDS011;65006;51.698;-0.292;2023-03-21T02:35:04;11.50;;;5.13;;
22476;SDS011;65006;51.698;-0.292;2023-03-21T02:37:47;13.63;;;4.82;;
22476;SDS011;65006;51.698;-0.292;2023-03-21T02:40:22;9.90;;;4.93;;
22476;SDS011;65006;51.698;-0.292;2023-03-21T02:42:58;14.52;;;5.78;;
22476;SDS011;65006;51.698;-0.292;2023-03-21T02:45:31;19.42;;;5.82;;
22476;SDS011;65006;51.698;-0.292;2023-03-21T02:48:02;15.32;;;5.13;;
22476;SDS011;65006;51.698;-0.292;2023-03-21T02:50:36;18.13;;;5.65;;
22476;SDS011;65006;51.698;-0.292;2023-03-21T02:53:04;21.25;;;5.70;;
22476;SDS011;65006;51.698;-0.292;2023-03-21T02:55:31;15.45;;;5.35;;
22476;SDS011;65006;51.698;-0.292;2023-03-21T02:57:58;14.40;;;5.00;;
22476;SDS011;65006;51.698;-0.292;2023-03-21T03:02:51;20.58;;;5.07;;
22476;SDS011;65006;51.698;-0.292;2023-03-21T03:05:20;13.68;;;5.22;;
22476;SDS011;65006;51.698;-0.292;2023-03-21T03:10:37;25.45;;;5.75;;
22476;SDS011;65006;51.698;-0.292;2023-03-21T03:18:19;16.25;;;5.25;;
22476;SDS011;65006;51.698;-0.292;2023-03-21T03:23:45;22.92;;;5.15;;
22476;SDS011;65006;51.698;-0.292;2023-03-21T03:26:20;13.65;;;5.40;;
22476;SDS011;65006;51.698;-0.292;2023-03-21T03:28:49;13.05;;;5.10;;
22476;SDS011;65006;51.698;-0.292;2023-03-21T03:31:17;14.95;;;4.82;;
22476;SDS011;65006;51.698;-0.292;2023-03-21T03:33:45;9.63;;;4.55;;
22476;SDS011;65006;51.698;-0.292;2023-03-21T03:36:13;13.88;;;4.80;;
22476;SDS011;65006;51.698;-0.292;2023-03-21T03:38:41;15.40;;;4.57;;
22476;SDS011;65006;51.698;-0.292;2023-03-21T03:41:09;14.55;;;4.82;;
22476;SDS011;65006;51.698;-0.292;2023-03-21T03:43:44;15.70;;;4.10;;
22476;SDS011;65006;51.698;-0.292;2023-03-21T03:46:13;12.98;;;4.28;;
22476;SDS011;65006;51.698;-0.292;2023-03-21T03:48:46;18.70;;;3.58;;
22476;SDS011;65006;51.698;-0.292;2023-03-21T03:51:24;13.45;;;4.30;;
22476;SDS011;65006;51.698;-0.292;2023-03-21T03:53:54;11.65;;;4.35;;
22476;SDS011;65006;51.698;-0.292;2023-03-21T03:56:22;12.23;;;3.28;;
22476;SDS011;65006;51.698;-0.292;2023-03-21T03:58:49;15.90;;;3.63;;
22476;SDS011;65006;51.698;-0.292;2023-03-21T04:01:15;9.10;;;2.85;;
22476;SDS011;65006;51.698;-0.292;2023-03-21T04:03:42;10.30;;;3.08;;
22476;SDS011;65006;51.698;-0.292;2023-03-21T04:06:09;12.68;;;3.40;;
22476;SDS011;65006;51.698;-0.292;2023-03-21T04:08:35;12.82;;;2.78;;
22476;SDS011;65006;51.698;-0.292;2023-03-21T04:13:28;13.15;;;2.53;;
22476;SDS011;65006;51.698;-0.292;2023-03-21T04:15:54;11.35;;;2.55;;
22476;SDS011;65006;51.698;-0.292;2023-03-21T04:18:21;6.85;;;2.22;;
22476;SDS011;65006;51.698;-0.292;2023-03-21T04:20:48;7.78;;;2.28;;
22476;SDS011;65006;51.698;-0.292;2023-03-21T04:23:15;7.72;;;2.33;;
22476;SDS011;65006;51.698;-0.292;2023-03-21T04:25:43;8.70;;;2.58;;
22476;SDS011;65006;51.698;-0.292;2023-03-21T04:28:10;11.30;;;2.28;;
22476;SDS011;65006;51.698;-0.292;2023-03-21T04:30:36;9.43;;;2.78;;
22476;SDS011;65006;51.698;-0.292;2023-03-21T04:33:02;7.35;;;2.45;;
22476;SDS011;65006;51.698;-0.292;2023-03-21T04:35:28;4.72;;;1.88;;
22476;SDS011;65006;51.698;-0.292;2023-03-21T04:37:54;8.30;;;2.40;;
22476;SDS011;65006;51.698;-0.292;2023-03-21T04:40:20;12.77;;;2.20;;
22476;SDS011;65006;51.698;-0.292;2023-03-21T04:42:46;6.72;;;2.22;;
22476;SDS011;65006;51.698;-0.292;2023-03-21T04:45:14;14.38;;;2.70;;
22476;SDS011;65006;51.698;-0.292;2023-03-21T04:47:40;3.88;;;2.03;;
22476;SDS011;65006;51.698;-0.292;2023-03-21T04:50:07;11.00;;;2.10;;
22476;SDS011;65006;51.698;-0.292;2023-03-21T04:52:33;11.40;;;2.40;;
22476;SDS011;65006;51.698;-0.292;2023-03-21T04:54:59;9.40;;;2.03;;
22476;SDS011;65006;51.698;-0.292;2023-03-21T04:57:26;11.00;;;2.38;;
22476;SDS011;65006;51.698;-0.292;2023-03-21T04:59:52;10.50;;;2.20;;
22476;SDS011;65006;51.698;-0.292;2023-03-21T05:02:18;8.10;;;2.65;;
22476;SDS011;65006;51.698;-0.292;2023-03-21T05:04:44;10.20;;;2.45;;
22476;SDS011;65006;51.698;-0.292;2023-03-21T05:07:10;14.95;;;2.08;;
22476;SDS011;65006;51.698;-0.292;2023-03-21T05:09:36;11.10;;;2.25;;
22476;SDS011;65006;51.698;-0.292;2023-03-21T05:12:02;5.45;;;2.20;;
22476;SDS011;65006;51.698;-0.292;2023-03-21T05:14:29;9.82;;;2.33;;
22476;SDS011;65006;51.698;-0.292;2023-03-21T05:16:55;7.55;;;2.78;;
22476;SDS011;65006;51.698;-0.292;2023-03-21T05:19:23;5.95;;;2.20;;
22476;SDS011;65006;51.698;-0.292;2023-03-21T05:21:49;15.40;;;2.35;;
22476;SDS011;65006;51.698;-0.292;2023-03-21T05:24:19;6.97;;;1.83;;
22476;SDS011;65006;51.698;-0.292;2023-03-21T05:26:46;5.05;;;1.85;;
22476;SDS011;65006;51.698;-0.292;2023-03-21T05:29:16;9.45;;;2.22;;
22476;SDS011;65006;51.698;-0.292;2023-03-21T05:31:43;5.57;;;1.80;;
22476;SDS011;65006;51.698;-0.292;2023-03-21T05:34:11;7.45;;;2.00;;
22476;SDS011;65006;51.698;-0.292;2023-03-21T05:36:37;14.10;;;2.28;;
22476;SDS011;65006;51.698;-0.292;2023-03-21T05:39:03;8.88;;;2.58;;
22476;SDS011;65006;51.698;-0.292;2023-03-21T05:41:30;11.10;;;2.08;;
22476;SDS011;65006;51.698;-0.292;2023-03-21T05:43:56;8.18;;;2.20;;
22476;SDS011;65006;51.698;-0.292;2023-03-21T05:46:22;6.85;;;2.10;;
22476;SDS011;65006;51.698;-0.292;2023-03-21T05:48:48;9.65;;;2.10;;
22476;SDS011;65006;51.698;-0.292;2023-03-21T05:51:14;4.63;;;1.60;;
22476;SDS011;65006;51.698;-0.292;2023-03-21T05:53:41;13.75;;;2.30;;
22476;SDS011;65006;51.698;-0.292;2023-03-21T05:56:07;4.10;;;2.05;;
22476;SDS011;65006;51.698;-0.292;2023-03-21T05:58:34;12.10;;;2.67;;
22476;SDS011;65006;51.698;-0.292;2023-03-21T06:01:00;7.57;;;2.63;;
22476;SDS011;65006;51.698;-0.292;2023-03-21T06:03:26;8.80;;;2.42;;
22476;SDS011;65006;51.698;-0.292;2023-03-21T06:05:52;9.35;;;2.28;;
22476;SDS011;65006;51.698;-0.292;2023-03-21T06:08:18;16.52;;;2.00;;
22476;SDS011;65006;51.698;-0.292;2023-03-21T06:10:44;5.18;;;2.30;;
22476;SDS011;65006;51.698;-0.292;2023-03-21T06:13:10;10.07;;;2.38;;
22476;SDS011;65006;51.698;-0.292;2023-03-21T06:15:36;13.05;;;2.53;;
22476;SDS011;65006;51.698;-0.292;2023-03-21T06:20:29;6.60;;;2.58;;
22476;SDS011;65006;51.698;-0.292;2023-03-21T06:22:55;6.10;;;2.35;;
22476;SDS011;65006;51.698;-0.292;2023-03-21T06:25:21;8.85;;;2.22;;
22476;SDS011;65006;51.698;-0.292;2023-03-21T06:27:47;9.07;;;2.47;;
22476;SDS011;65006;51.698;-0.292;2023-03-21T06:30:13;6.78;;;2.22;;
22476;SDS011;65006;51.698;-0.292;2023-03-21T06:32:40;5.10;;;1.77;;
22476;SDS011;65006;51.698;-0.292;2023-03-21T06:35:06;8.63;;;2.20;;
22476;SDS011;65006;51.698;-0.292;2023-03-21T06:37:32;8.13;;;2.38;;
22476;SDS011;65006;51.698;-0.292;2023-03-21T06:39:58;10.60;;;2.35;;
22476;SDS011;65006;51.698;-0.292;2023-03-21T06:42:24;4.20;;;2.03;;
22476;SDS011;65006;51.698;-0.292;2023-03-21T06:44:50;8.05;;;3.08;;
22476;SDS011;65006;51.698;-0.292;2023-03-21T06:47:17;9.55;;;2.80;;
22476;SDS011;65006;51.698;-0.292;2023-03-21T06:49:43;7.10;;;2.22;;
22476;SDS011;65006;51.698;-0.292;2023-03-21T06:52:10;12.00;;;2.58;;
22476;SDS011;65006;51.698;-0.292;2023-03-21T06:54:36;7.40;;;2.25;;
22476;SDS011;65006;51.698;-0.292;2023-03-21T06:57:02;9.73;;;2.35;;
22476;SDS011;65006;51.698;-0.292;2023-03-21T06:59:28;10.13;;;2.60;;
22476;SDS011;65006;51.698;-0.292;2023-03-21T07:01:54;7.35;;;2.47;;
22476;SDS011;65006;51.698;-0.292;2023-03-21T07:04:20;4.63;;;2.60;;
22476;SDS011;65006;51.698;-0.292;2023-03-21T07:06:46;8.80;;;2.10;;
22476;SDS011;65006;51.698;-0.292;2023-03-21T07:09:12;7.88;;;2.85;;
22476;SDS011;65006;51.698;-0.292;2023-03-21T07:11:38;5.25;;;2.05;;
22476;SDS011;65006;51.698;-0.292;2023-03-21T07:14:05;12.10;;;2.63;;
22476;SDS011;65006;51.698;-0.292;2023-03-21T07:16:31;11.80;;;2.80;;
22476;SDS011;65006;51.698;-0.292;2023-03-21T07:18:57;7.45;;;2.75;;
22476;SDS011;65006;51.698;-0.292;2023-03-21T07:21:23;10.95;;;2.83;;
22476;SDS011;65006;51.698;-0.292;2023-03-21T07:23:49;11.70;;;2.67;;
22476;SDS011;65006;51.698;-0.292;2023-03-21T07:26:15;6.13;;;2.92;;
22476;SDS011;65006;51.698;-0.292;2023-03-21T07:28:42;10.02;;;3.35;;
22476;SDS011;65006;51.698;-0.292;2023-03-21T07:31:11;12.80;;;2.83;;
22476;SDS011;65006;51.698;-0.292;2023-03-21T07:33:38;5.18;;;2.60;;
22476;SDS011;65006;51.698;-0.292;2023-03-21T07:36:07;7.22;;;2.85;;
22476;SDS011;65006;51.698;-0.292;2023-03-21T07:38:34;5.30;;;2.63;;
22476;SDS011;65006;51.698;-0.292;2023-03-21T07:41:00;4.85;;;2.47;;
22476;SDS011;65006;51.698;-0.292;2023-03-21T07:43:26;6.85;;;2.67;;
22476;SDS011;65006;51.698;-0.292;2023-03-21T07:45:56;6.53;;;3.13;;
22476;SDS011;65006;51.698;-0.292;2023-03-21T07:48:22;10.73;;;2.80;;
22476;SDS011;65006;51.698;-0.292;2023-03-21T07:50:49;6.65;;;3.13;;
22476;SDS011;65006;51.698;-0.292;2023-03-21T07:53:15;7.28;;;2.60;;
22476;SDS011;65006;51.698;-0.292;2023-03-21T07:55:41;8.35;;;3.10;;
22476;SDS011;65006;51.698;-0.292;2023-03-21T07:58:07;6.60;;;2.47;;
22476;SDS011;65006;51.698;-0.292;2023-03-21T08:00:33;5.07;;;2.72;;
22476;SDS011;65006;51.698;-0.292;2023-03-21T08:02:59;7.78;;;2.88;;
22476;SDS011;65006;51.698;-0.292;2023-03-21T08:05:29;7.45;;;3.38;;
22476;SDS011;65006;51.698;-0.292;2023-03-21T08:07:58;8.65;;;2.85;;
22476;SDS011;65006;51.698;-0.292;2023-03-21T08:10:24;6.97;;;2.72;;
22476;SDS011;65006;51.698;-0.292;2023-03-21T08:12:50;5.75;;;2.45;;
22476;SDS011;65006;51.698;-0.292;2023-03-21T08:15:16;6.65;;;2.72;;
22476;SDS011;65006;51.698;-0.292;2023-03-21T08:17:42;11.23;;;3.38;;
22476;SDS011;65006;51.698;-0.292;2023-03-21T08:20:13;6.05;;;2.33;;
22476;SDS011;65006;51.698;-0.292;2023-03-21T08:22:40;5.35;;;2.30;;
22476;SDS011;65006;51.698;-0.292;2023-03-21T08:25:07;3.25;;;2.25;;
22476;SDS011;65006;51.698;-0.292;2023-03-21T08:27:35;5.50;;;2.38;;
22476;SDS011;65006;51.698;-0.292;2023-03-21T08:30:01;5.57;;;2.30;;
22476;SDS011;65006;51.698;-0.292;2023-03-21T08:32:27;2.67;;;1.88;;
22476;SDS011;65006;51.698;-0.292;2023-03-21T08:34:58;11.63;;;2.45;;
22476;SDS011;65006;51.698;-0.292;2023-03-21T08:37:25;12.55;;;2.33;;
22476;SDS011;65006;51.698;-0.292;2023-03-21T08:42:17;2.88;;;1.50;;
22476;SDS011;65006;51.698;-0.292;2023-03-21T08:44:43;7.10;;;2.10;;
22476;SDS011;65006;51.698;-0.292;2023-03-21T08:47:10;5.40;;;1.73;;
22476;SDS011;65006;51.698;-0.292;2023-03-21T08:49:38;5.72;;;1.92;;
22476;SDS011;65006;51.698;-0.292;2023-03-21T08:52:06;5.30;;;1.80;;
22476;SDS011;65006;51.698;-0.292;2023-03-21T08:54:33;5.30;;;1.70;;
22476;SDS011;65006;51.698;-0.292;2023-03-21T08:56:59;5.43;;;1.73;;
22476;SDS011;65006;51.698;-0.292;2023-03-21T08:59:25;4.57;;;1.80;;
22476;SDS011;65006;51.698;-0.292;2023-03-21T09:01:51;4.20;;;1.35;;
22476;SDS011;65006;51.698;-0.292;2023-03-21T09:04:17;8.63;;;1.75;;
22476;SDS011;65006;51.698;-0.292;2023-03-21T09:06:44;8.32;;;1.30;;
22476;SDS011;65006;51.698;-0.292;2023-03-21T09:09:14;4.45;;;1.10;;
22476;SDS011;65006;51.698;-0.292;2023-03-21T09:14:06;5.22;;;1.40;;
22476;SDS011;65006;51.698;-0.292;2023-03-21T09:16:32;7.32;;;1.70;;
22476;SDS011;65006;51.698;-0.292;2023-03-21T09:18:58;3.63;;;1.05;;
22476;SDS011;65006;51.698;-0.292;2023-03-21T09:21:25;4.53;;;1.52;;
22476;SDS011;65006;51.698;-0.292;2023-03-21T09:23:52;6.45;;;1.50;;
22476;SDS011;65006;51.698;-0.292;2023-03-21T09:26:20;9.00;;;1.20;;
22476;SDS011;65006;51.698;-0.292;2023-03-21T09:28:46;5.18;;;1.25;;
22476;SDS011;65006;51.698;-0.292;2023-03-21T09:31:13;6.10;;;1.25;;
22476;SDS011;65006;51.698;-0.292;2023-03-21T09:33:40;6.72;;;1.30;;
22476;SDS011;65006;51.698;-0.292;2023-03-21T09:36:08;8.98;;;1.60;;
22476;SDS011;65006;51.698;-0.292;2023-03-21T09:38:41;6.38;;;1.27;;
22476;SDS011;65006;51.698;-0.292;2023-03-21T09:46:44;4.13;;;1.30;;
22476;SDS011;65006;51.698;-0.292;2023-03-21T09:49:17;3.55;;;1.40;;
22476;SDS011;65006;51.698;-0.292;2023-03-21T09:51:45;7.43;;;1.10;;
22476;SDS011;65006;51.698;-0.292;2023-03-21T09:54:21;4.85;;;1.45;;
22476;SDS011;65006;51.698;-0.292;2023-03-21T09:56:50;6.80;;;1.58;;
22476;SDS011;65006;51.698;-0.292;2023-03-21T09:59:31;3.22;;;1.50;;
22476;SDS011;65006;51.698;-0.292;2023-03-21T10:04:44;5.05;;;1.55;;
22476;SDS011;65006;51.698;-0.292;2023-03-21T10:07:10;5.65;;;1.35;;
22476;SDS011;65006;51.698;-0.292;2023-03-21T10:09:42;9.30;;;1.60;;
22476;SDS011;65006;51.698;-0.292;2023-03-21T10:14:36;6.85;;;2.05;;
22476;SDS011;65006;51.698;-0.292;2023-03-21T10:19:31;6.00;;;1.35;;
22476;SDS011;65006;51.698;-0.292;2023-03-21T10:21:57;5.70;;;1.23;;
22476;SDS011;65006;51.698;-0.292;2023-03-21T10:24:24;6.30;;;1.00;;
22476;SDS011;65006;51.698;-0.292;2023-03-21T10:26:51;3.03;;;1.40;;
22476;SDS011;65006;51.698;-0.292;2023-03-21T10:31:46;2.60;;;1.02;;
22476;SDS011;65006;51.698;-0.292;2023-03-21T10:34:18;7.47;;;1.50;;
22476;SDS011;65006;51.698;-0.292;2023-03-21T10:36:45;2.47;;;1.02;;
22476;SDS011;65006;51.698;-0.292;2023-03-21T10:39:31;7.32;;;1.25;;
22476;SDS011;65006;51.698;-0.292;2023-03-21T10:41:58;6.47;;;1.20;;
22476;SDS011;65006;51.698;-0.292;2023-03-21T10:44:28;3.80;;;1.13;;
22476;SDS011;65006;51.698;-0.292;2023-03-21T10:46:55;8.15;;;2.15;;
22476;SDS011;65006;51.698;-0.292;2023-03-21T10:49:24;4.00;;;1.00;;
22476;SDS011;65006;51.698;-0.292;2023-03-21T10:51:55;2.38;;;0.90;;
22476;SDS011;65006;51.698;-0.292;2023-03-21T10:54:25;7.95;;;1.13;;
22476;SDS011;65006;51.698;-0.292;2023-03-21T10:57:04;2.67;;;1.08;;
22476;SDS011;65006;51.698;-0.292;2023-03-21T10:59:44;7.22;;;1.20;;
22476;SDS011;65006;51.698;-0.292;2023-03-21T11:02:27;4.40;;;0.80;;
22476;SDS011;65006;51.698;-0.292;2023-03-21T11:04:55;8.18;;;1.33;;
22476;SDS011;65006;51.698;-0.292;2023-03-21T11:07:22;4.05;;;1.20;;
22476;SDS011;65006;51.698;-0.292;2023-03-21T11:09:56;5.07;;;0.88;;
22476;SDS011;65006;51.698;-0.292;2023-03-21T11:12:34;8.27;;;0.82;;
22476;SDS011;65006;51.698;-0.292;2023-03-21T11:17:44;8.13;;;0.60;;
22476;SDS011;65006;51.698;-0.292;2023-03-21T11:20:16;3.50;;;0.68;;
22476;SDS011;65006;51.698;-0.292;2023-03-21T11:22:43;3.97;;;0.65;;
22476;SDS011;65006;51.698;-0.292;2023-03-21T11:25:19;2.35;;;0.52;;
22476;SDS011;65006;51.698;-0.292;2023-03-21T11:27:52;5.85;;;0.88;;
22476;SDS011;65006;51.698;-0.292;2023-03-21T11:30:22;8.20;;;0.95;;
22476;SDS011;65006;51.698;-0.292;2023-03-21T11:32:55;3.72;;;0.60;;
22476;SDS011;65006;51.698;-0.292;2023-03-21T11:35:22;7.88;;;0.70;;
22476;SDS011;65006;51.698;-0.292;2023-03-21T11:37:50;10.93;;;0.77;;
22476;SDS011;65006;51.698;-0.292;2023-03-21T11:42:44;11.77;;;1.08;;
22476;SDS011;65006;51.698;-0.292;2023-03-21T11:45:16;5.00;;;0.80;;
22476;SDS011;65006;51.698;-0.292;2023-03-21T11:47:43;4.22;;;0.70;;
22476;SDS011;65006;51.698;-0.292;2023-03-21T11:50:32;7.25;;;1.02;;
22476;SDS011;65006;51.698;-0.292;2023-03-21T12:00:34;7.72;;;1.13;;
22476;SDS011;65006;51.698;-0.292;2023-03-21T12:08:19;9.00;;;1.17;;
22476;SDS011;65006;51.698;-0.292;2023-03-21T12:10:51;4.00;;;0.90;;
22476;SDS011;65006;51.698;-0.292;2023-03-21T12:13:38;4.47;;;1.70;;
22476;SDS011;65006;51.698;-0.292;2023-03-21T12:16:21;3.63;;;0.70;;
22476;SDS011;65006;51.698;-0.292;2023-03-21T12:24:22;2.70;;;0.65;;
22476;SDS011;65006;51.698;-0.292;2023-03-21T12:29:28;4.97;;;1.52;;
22476;SDS011;65006;51.698;-0.292;2023-03-21T12:34:34;6.32;;;0.57;;
22476;SDS011;65006;51.698;-0.292;2023-03-21T12:39:45;3.33;;;0.63;;
22476;SDS011;65006;51.698;-0.292;2023-03-21T12:44:42;4.97;;;0.68;;
22476;SDS011;65006;51.698;-0.292;2023-03-21T12:47:15;12.60;;;1.13;;
22476;SDS011;65006;51.698;-0.292;2023-03-21T12:49:50;2.47;;;0.60;;
22476;SDS011;65006;51.698;-0.292;2023-03-21T12:52:20;4.43;;;0.90;;
22476;SDS011;65006;51.698;-0.292;2023-03-21T12:54:54;3.70;;;0.68;;
22476;SDS011;65006;51.698;-0.292;2023-03-21T12:57:25;4.63;;;0.73;;
22476;SDS011;65006;51.698;-0.292;2023-03-21T13:03:10;6.95;;;0.50;;
22476;SDS011;65006;51.698;-0.292;2023-03-21T13:08:37;3.38;;;0.70;;
22476;SDS011;65006;51.698;-0.292;2023-03-21T13:10:44;3.80;;;0.60;;
22476;SDS011;65006;51.698;-0.292;2023-03-21T13:15:44;4.35;;;0.70;;
22476;SDS011;65006;51.698;-0.292;2023-03-21T13:20:57;9.70;;;0.82;;
22476;SDS011;65006;51.698;-0.292;2023-03-21T13:23:25;6.13;;;0.60;;
22476;SDS011;65006;51.698;-0.292;2023-03-21T13:25:58;6.10;;;0.90;;
22476;SDS011;65006;51.698;-0.292;2023-03-21T13:28:31;4.38;;;0.63;;
22476;SDS011;65006;51.698;-0.292;2023-03-21T13:33:44;7.88;;;0.75;;
22476;SDS011;65006;51.698;-0.292;2023-03-21T13:36:11;2.60;;;0.63;;
22476;SDS011;65006;51.698;-0.292;2023-03-21T13:38:38;8.15;;;0.95;;
22476;SDS011;65006;51.698;-0.292;2023-03-21T13:41:06;2.50;;;0.55;;
22476;SDS011;65006;51.698;-0.292;2023-03-21T13:43:40;2.40;;;0.57;;
22476;SDS011;65006;51.698;-0.292;2023-03-21T13:46:10;3.28;;;0.63;;
22476;SDS011;65006;51.698;-0.292;2023-03-21T13:48:53;3.42;;;0.40;;
22476;SDS011;65006;51.698;-0.292;2023-03-21T13:56:27;7.22;;;0.60;;
22476;SDS011;65006;51.698;-0.292;2023-03-21T13:59:03;4.65;;;0.40;;
22476;SDS011;65006;51.698;-0.292;2023-03-21T14:01:41;5.40;;;1.25;;
22476;SDS011;65006;51.698;-0.292;2023-03-21T14:04:24;2.97;;;0.52;;
22476;SDS011;65006;51.698;-0.292;2023-03-21T14:07:01;3.78;;;0.80;;
22476;SDS011;65006;51.698;-0.292;2023-03-21T14:09:38;1.63;;;0.50;;
22476;SDS011;65006;51.698;-0.292;2023-03-21T14:14:32;2.28;;;0.68;;
22476;SDS011;65006;51.698;-0.292;2023-03-21T14:17:00;8.43;;;0.80;;
22476;SDS011;65006;51.698;-0.292;2023-03-21T14:19:30;1.60;;;0.50;;
22476;SDS011;65006;51.698;-0.292;2023-03-21T14:21:56;8.18;;;0.63;;
22476;SDS011;65006;51.698;-0.292;2023-03-21T14:24:23;3.85;;;0.73;;
22476;SDS011;65006;51.698;-0.292;2023-03-21T14:26:50;5.53;;;0.88;;
22476;SDS011;65006;51.698;-0.292;2023-03-21T14:29:26;5.38;;;1.20;;
22476;SDS011;65006;51.698;-0.292;2023-03-21T14:31:54;4.38;;;0.60;;
22476;SDS011;65006;51.698;-0.292;2023-03-21T14:34:21;6.28;;;0.70;;
22476;SDS011;65006;51.698;-0.292;2023-03-21T14:36:47;8.68;;;1.90;;
22476;SDS011;65006;51.698;-0.292;2023-03-21T14:39:19;2.50;;;0.50;;
22476;SDS011;65006;51.698;-0.292;2023-03-21T14:41:56;7.15;;;0.70;;
22476;SDS011;65006;51.698;-0.292;2023-03-21T14:44:31;3.95;;;0.98;;
22476;SDS011;65006;51.698;-0.292;2023-03-21T14:46:59;7.40;;;1.02;;
22476;SDS011;65006;51.698;-0.292;2023-03-21T14:49:31;1.75;;;0.65;;
22476;SDS011;65006;51.698;-0.292;2023-03-21T14:52:00;4.88;;;0.82;;
22476;SDS011;65006;51.698;-0.292;2023-03-21T14:54:26;8.35;;;0.88;;
22476;SDS011;65006;51.698;-0.292;2023-03-21T14:56:58;2.88;;;0.85;;
22476;SDS011;65006;51.698;-0.292;2023-03-21T14:59:25;4.70;;;0.90;;
22476;SDS011;65006;51.698;-0.292;2023-03-21T15:01:52;7.05;;;0.93;;
22476;SDS011;65006;51.698;-0.292;2023-03-21T15:04:20;5.35;;;1.10;;
22476;SDS011;65006;51.698;-0.292;2023-03-21T15:06:54;7.38;;;1.35;;
22476;SDS011;65006;51.698;-0.292;2023-03-21T15:09:22;5.68;;;0.90;;
22476;SDS011;65006;51.698;-0.292;2023-03-21T15:11:52;7.35;;;0.80;;
22476;SDS011;65006;51.698;-0.292;2023-03-21T15:14:20;4.03;;;0.70;;
22476;SDS011;65006;51.698;-0.292;2023-03-21T15:16:47;4.82;;;0.63;;
22476;SDS011;65006;51.698;-0.292;2023-03-21T15:19:14;3.50;;;0.75;;
22476;SDS011;65006;51.698;-0.292;2023-03-21T15:21:50;2.50;;;0.60;;
22476;SDS011;65006;51.698;-0.292;2023-03-21T15:24:24;4.47;;;1.20;;
22476;SDS011;65006;51.698;-0.292;2023-03-21T15:26:53;4.03;;;0.38;;
22476;SDS011;65006;51.698;-0.292;2023-03-21T15:29:21;4.43;;;0.70;;
22476;SDS011;65006;51.698;-0.292;2023-03-21T15:31:54;5.68;;;0.90;;
22476;SDS011;65006;51.698;-0.292;2023-03-21T15:34:22;1.90;;;0.60;;
22476;SDS011;65006;51.698;-0.292;2023-03-21T15:36:48;4.40;;;0.55;;
22476;SDS011;65006;51.698;-0.292;2023-03-21T15:39:16;4.53;;;0.52;;
22476;SDS011;65006;51.698;-0.292;2023-03-21T15:44:31;6.28;;;0.75;;
22476;SDS011;65006;51.698;-0.292;2023-03-21T15:46:58;3.90;;;0.90;;
22476;SDS011;65006;51.698;-0.292;2023-03-21T15:49:31;5.32;;;1.13;;
22476;SDS011;65006;51.698;-0.292;2023-03-21T15:56:53;6.45;;;1.10;;
22476;SDS011;65006;51.698;-0.292;2023-03-21T15:59:20;9.52;;;0.90;;
22476;SDS011;65006;51.698;-0.292;2023-03-21T16:01:48;5.95;;;0.98;;
22476;SDS011;65006;51.698;-0.292;2023-03-21T16:04:15;5.95;;;0.82;;
22476;SDS011;65006;51.698;-0.292;2023-03-21T16:07:01;3.72;;;1.20;;
22476;SDS011;65006;51.698;-0.292;2023-03-21T16:09:27;7.00;;;0.90;;
22476;SDS011;65006;51.698;-0.292;2023-03-21T16:12:04;5.93;;;1.10;;
22476;SDS011;65006;51.698;-0.292;2023-03-21T16:14:33;5.15;;;0.80;;
22476;SDS011;65006;51.698;-0.292;2023-03-21T16:17:00;3.65;;;0.95;;
22476;SDS011;65006;51.698;-0.292;2023-03-21T16:19:38;4.60;;;1.58;;
22476;SDS011;65006;51.698;-0.292;2023-03-21T16:22:08;8.57;;;1.00;;
22476;SDS011;65006;51.698;-0.292;2023-03-21T16:24:35;7.18;;;0.77;;
22476;SDS011;65006;51.698;-0.292;2023-03-21T16:27:01;12.18;;;1.00;;
22476;SDS011;65006;51.698;-0.292;2023-03-21T16:29:27;6.72;;;1.17;;
22476;SDS011;65006;51.698;-0.292;2023-03-21T16:34:24;2.90;;;0.55;;
22476;SDS011;65006;51.698;-0.292;2023-03-21T16:39:18;1.35;;;0.50;;
22476;SDS011;65006;51.698;-0.292;2023-03-21T16:41:45;8.48;;;1.00;;
22476;SDS011;65006;51.698;-0.292;2023-03-21T16:44:13;5.65;;;0.70;;
22476;SDS011;65006;51.698;-0.292;2023-03-21T16:46:39;6.65;;;0.65;;